Whiteman Air Force Base
KSZL : now visible

Airfield :











YOU CAN JOIN US ON...

 
LOGIN :

Register | Disclaimer

   EN    FR    IT 

 









Legend :    VFR   Marginal VFR   IFR   Intensive IFR   Very Intensive IFR
Visi :
Ceiling :
>= 8 km
>= 3000ft
5 to 8 km
1000 to 3000 ft
1500m to 5 km
500 to 1000 ft
800 to 1500m
200 to 500 ft
< 800m
< 200 ft
Symbols :   Thunderstorms  Fog  Heavy snow  Heavy precipitations  Wind > 20 kt






- Airport Elevation : 870 ft


KSZL - Whiteman Air Force Base

CURRENT METAR :
  • 162155Z 08005KT 6SM OVC009 20/19 A3002 RMK AO2A SLP164 P0000 T02010194 $

EXPIRED METARs :
  • 162055Z 09007KT 6SM -DZ OVC007 20/19 A3000 RMK AO2A SLP157 P0001 60004 T01990192 $
  • 162015Z 07007KT 9SM -DZ SCT008 OVC013 20/19 A2999 RMK AO2A DZB15 SLP154 $
  • 161956Z 09008KT 10SM SCT007 OVC013 20/19 A3000 RMK AO2A DZE10 SLP157 P0000 T01980190 $
  • 161940Z 09008KT 10SM SCT006 OVC013 20/19 A3000 RMK DZE10 SLP157 $
  • 161911Z 10007KT 10SM BKN007 OVC010 20/19 A3000 RMK AO2A DZE10 SLP156 $

TAF TAF KSZL
Valid from the 16 at 19:00 until the 18 at 01:00 UTC


161900Z 1619/1801 08009KT 8000 -DZ OVC010 QNH2998INS
TEMPO 1619/1703 6000 -DZ BR OVC006
BECMG 1703/1704 08009KT 9999 NSW SCT007 OVC025 QNH3000INS
TEMPO 1710/1714 3200 BR BKN007
BECMG 1715/1716 07009KT 9999 SCT040 QNH3001INS TX20/1619Z TN18/1711Z
KZKC FIR / North America



MET'MAP, your aeronautical weather chart ! - Copyright ORBIFLY December 2007 - Disclaimer

ORBIFLY MET'MAP TEAM :

Programming & Development : Alexandra Zaïnal
Original concept : Baudouin d'Aumeries
Technical & hardware support : Manuel Goepfert
Assistance : Marc-Olivier Méhu




SOURCES & CREDITS :

   NOAA       Earth
Advisory